createdAt,value
2023-03-27T00:00:09.959Z,11.80
2023-03-27T00:02:40.649Z,11.70
2023-03-27T00:05:10.625Z,11.70
2023-03-27T00:07:41.594Z,11.80
2023-03-27T00:10:10.377Z,11.70
2023-03-27T00:12:39.592Z,11.70
2023-03-27T00:15:08.371Z,11.60
2023-03-27T00:17:37.516Z,11.60
2023-03-27T00:20:06.454Z,11.60
2023-03-27T00:22:36.420Z,11.70
2023-03-27T00:25:07.681Z,11.70
2023-03-27T00:27:36.508Z,11.70
2023-03-27T00:30:05.434Z,11.70
2023-03-27T00:32:34.257Z,11.70
2023-03-27T00:35:04.968Z,11.60
2023-03-27T00:37:32.963Z,11.70
2023-03-27T00:40:02.336Z,11.70
2023-03-27T00:42:30.350Z,11.70
2023-03-27T00:44:58.373Z,11.60
2023-03-27T00:47:31.495Z,11.60
2023-03-27T00:50:01.679Z,11.70
2023-03-27T00:52:31.910Z,11.70
2023-03-27T00:55:01.250Z,11.70
2023-03-27T00:57:29.688Z,11.80
2023-03-27T01:00:01.322Z,11.70
2023-03-27T01:02:29.576Z,11.70
2023-03-27T01:04:57.962Z,11.70
2023-03-27T01:07:26.402Z,11.70
2023-03-27T01:09:54.936Z,11.70
2023-03-27T01:12:43.147Z,11.70
2023-03-27T01:15:14.201Z,11.70
2023-03-27T01:17:51.536Z,11.70
2023-03-27T01:20:33.928Z,11.70
2023-03-27T01:23:11.776Z,11.70
2023-03-27T01:26:07.641Z,11.70
2023-03-27T01:28:50.750Z,11.70
2023-03-27T01:31:21.823Z,11.60
2023-03-27T01:34:01.737Z,11.60
2023-03-27T01:36:42.337Z,11.60
2023-03-27T01:39:16.648Z,11.60
2023-03-27T01:42:04.514Z,11.60
2023-03-27T01:44:51.454Z,11.60
2023-03-27T01:47:26.985Z,11.60
2023-03-27T01:50:05.012Z,11.50
2023-03-27T01:52:36.112Z,11.50
2023-03-27T01:55:06.168Z,11.40
2023-03-27T01:57:48.880Z,11.50
2023-03-27T02:00:24.939Z,11.40
2023-03-27T02:03:14.868Z,11.30
2023-03-27T02:05:49.745Z,11.30
2023-03-27T02:08:20.601Z,11.30
2023-03-27T02:10:51.535Z,11.20
2023-03-27T02:13:25.426Z,11.20
2023-03-27T02:15:55.187Z,11.20
2023-03-27T02:18:28.910Z,11.20
2023-03-27T02:20:57.313Z,11.10
2023-03-27T02:23:28.476Z,11.10
2023-03-27T02:25:56.893Z,11.10
2023-03-27T02:28:25.050Z,11.10
2023-03-27T02:31:32.424Z,11.10
2023-03-27T02:34:15.313Z,11.10
2023-03-27T02:36:46.344Z,11.10
2023-03-27T02:39:19.204Z,11.00
2023-03-27T02:42:06.338Z,11.00
2023-03-27T02:44:52.077Z,11.00
2023-03-27T02:47:30.827Z,11.00
2023-03-27T02:50:03.179Z,11.00
2023-03-27T02:52:36.843Z,10.90
2023-03-27T02:55:11.545Z,11.00
2023-03-27T02:57:39.707Z,11.00
2023-03-27T03:00:28.511Z,11.00
2023-03-27T03:03:43.616Z,11.00
2023-03-27T03:06:36.138Z,11.00
2023-03-27T03:09:07.835Z,11.00
2023-03-27T03:11:37.323Z,11.00
2023-03-27T03:14:06.135Z,11.00
2023-03-27T03:16:35.086Z,11.00
2023-03-27T03:19:06.490Z,11.00
2023-03-27T03:21:35.416Z,11.00
2023-03-27T03:24:03.833Z,11.00
2023-03-27T03:26:32.765Z,11.00
2023-03-27T03:29:01.846Z,10.90
2023-03-27T03:31:44.197Z,10.90
2023-03-27T03:34:17.427Z,10.90
2023-03-27T03:36:50.103Z,10.80
2023-03-27T03:39:25.513Z,10.80
2023-03-27T03:41:54.685Z,10.70
2023-03-27T03:44:25.639Z,10.60
2023-03-27T03:46:54.918Z,10.60
2023-03-27T03:49:25.385Z,10.60
2023-03-27T03:52:03.217Z,10.50
2023-03-27T03:54:33.918Z,10.50
2023-03-27T03:57:03.522Z,10.50
2023-03-27T03:59:33.550Z,10.50
2023-03-27T04:02:29.497Z,10.50
2023-03-27T04:05:08.796Z,10.50
2023-03-27T04:07:40.604Z,10.50
2023-03-27T04:10:35.257Z,10.50
2023-03-27T04:13:06.940Z,10.50
2023-03-27T04:15:46.038Z,10.50
2023-03-27T04:18:33.109Z,10.50
2023-03-27T04:21:06.825Z,10.50
2023-03-27T04:23:34.910Z,10.60
2023-03-27T04:26:04.325Z,10.60
2023-03-27T04:29:01.719Z,10.60
2023-03-27T04:31:56.723Z,10.70
2023-03-27T04:34:43.724Z,10.80
2023-03-27T04:37:50.755Z,10.90
2023-03-27T04:40:39.223Z,11.00
2023-03-27T04:43:08.643Z,11.20
2023-03-27T04:45:37.457Z,11.20
2023-03-27T04:48:08.402Z,11.40
2023-03-27T04:50:37.886Z,11.50
2023-03-27T04:53:06.427Z,11.70
2023-03-27T04:55:41.021Z,11.90
2023-03-27T04:58:10.343Z,12.00
2023-03-27T05:00:39.199Z,12.10
2023-03-27T05:03:30.590Z,12.10
2023-03-27T05:06:05.278Z,12.10
2023-03-27T05:08:33.372Z,12.00
2023-03-27T05:11:01.605Z,12.00
2023-03-27T05:13:38.758Z,12.00
2023-03-27T05:16:09.633Z,11.90
2023-03-27T05:18:46.420Z,11.90
2023-03-27T05:21:15.325Z,11.90
2023-03-27T05:23:43.823Z,11.90
2023-03-27T05:26:13.318Z,11.90
2023-03-27T05:28:56.258Z,12.00
2023-03-27T05:31:27.736Z,12.00
2023-03-27T05:34:06.111Z,12.00
2023-03-27T05:36:37.469Z,12.00
2023-03-27T05:39:05.812Z,12.00
2023-03-27T05:41:37.481Z,12.00
2023-03-27T05:44:06.533Z,12.10
2023-03-27T05:46:38.150Z,12.10
2023-03-27T05:49:16.990Z,12.10
2023-03-27T05:51:49.902Z,12.10
2023-03-27T05:54:21.298Z,12.10
2023-03-27T05:57:10.421Z,12.10
2023-03-27T05:59:43.114Z,12.20
2023-03-27T06:02:21.645Z,12.30
2023-03-27T06:04:59.628Z,12.30
2023-03-27T06:07:40.302Z,12.30
2023-03-27T06:10:13.383Z,12.30
2023-03-27T06:12:45.909Z,12.30
2023-03-27T06:15:32.354Z,12.40
2023-03-27T06:18:26.761Z,12.40
2023-03-27T06:20:55.312Z,12.50
2023-03-27T06:23:23.665Z,12.50
2023-03-27T06:25:53.617Z,12.40
2023-03-27T06:28:27.068Z,12.50
2023-03-27T06:30:55.167Z,12.60
2023-03-27T06:33:37.375Z,12.60
2023-03-27T06:36:07.799Z,12.60
2023-03-27T06:38:38.336Z,12.70
2023-03-27T06:41:06.811Z,12.80
2023-03-27T06:43:55.178Z,12.90
2023-03-27T06:46:49.013Z,13.00
2023-03-27T06:49:25.624Z,13.10
2023-03-27T06:51:53.960Z,13.30
2023-03-27T06:54:23.334Z,13.50
2023-03-27T06:56:55.006Z,13.80
2023-03-27T06:59:23.517Z,14.00
2023-03-27T07:02:00.867Z,14.30
2023-03-27T07:05:09.037Z,15.00
2023-03-27T07:07:41.708Z,16.10
2023-03-27T07:10:11.569Z,16.50
2023-03-27T07:12:41.863Z,16.50
2023-03-27T07:15:14.186Z,16.50
2023-03-27T07:17:49.010Z,16.50
2023-03-27T07:20:20.116Z,16.70
2023-03-27T07:22:48.482Z,17.30
2023-03-27T07:25:38.298Z,17.90
2023-03-27T07:28:12.893Z,18.20
2023-03-27T07:30:41.771Z,18.10
2023-03-27T07:33:13.070Z,17.90
2023-03-27T07:35:42.258Z,17.90
2023-03-27T07:38:36.582Z,17.90
2023-03-27T07:41:17.392Z,18.20
2023-03-27T07:43:48.234Z,19.40
2023-03-27T07:46:16.693Z,21.10
2023-03-27T07:48:45.872Z,21.90
2023-03-27T07:51:19.563Z,21.90
2023-03-27T07:53:49.619Z,21.30
2023-03-27T07:56:23.896Z,21.30
2023-03-27T07:59:12.738Z,22.70
2023-03-27T08:01:42.051Z,23.20
2023-03-27T08:04:10.593Z,22.70
2023-03-27T08:06:41.358Z,23.40
2023-03-27T08:09:14.146Z,25.00
2023-03-27T08:11:42.458Z,26.80
2023-03-27T08:14:10.763Z,28.10
2023-03-27T08:16:40.228Z,28.40
2023-03-27T08:19:10.818Z,28.10
2023-03-27T08:21:46.366Z,27.90
2023-03-27T08:24:14.588Z,27.90
2023-03-27T08:27:01.243Z,27.70
2023-03-27T08:29:30.532Z,26.60
2023-03-27T08:31:59.123Z,25.80
2023-03-27T08:34:28.466Z,25.60
2023-03-27T08:36:57.376Z,25.90
2023-03-27T08:39:33.393Z,25.60
2023-03-27T08:42:07.438Z,25.70
2023-03-27T08:44:38.877Z,28.00
2023-03-27T08:47:24.172Z,30.00
2023-03-27T08:49:59.713Z,31.70
2023-03-27T08:52:43.709Z,32.80
2023-03-27T08:55:21.292Z,33.70
2023-03-27T08:58:00.674Z,32.60
2023-03-27T09:00:34.091Z,31.50
2023-03-27T09:03:29.158Z,30.60
2023-03-27T09:06:00.876Z,29.60
2023-03-27T09:08:32.555Z,29.00
2023-03-27T09:11:07.778Z,29.30
2023-03-27T09:13:44.243Z,29.60
2023-03-27T09:16:31.550Z,29.80
2023-03-27T09:19:20.767Z,30.30
2023-03-27T09:22:18.327Z,30.60
2023-03-27T09:25:01.066Z,30.30
2023-03-27T09:28:12.489Z,29.40
2023-03-27T09:30:46.294Z,28.90
2023-03-27T09:33:41.803Z,28.70
2023-03-27T09:36:10.380Z,28.80
2023-03-27T09:38:42.629Z,28.90
2023-03-27T09:41:26.132Z,29.40
2023-03-27T09:44:07.190Z,29.60
2023-03-27T09:46:42.774Z,29.50
2023-03-27T09:49:17.871Z,29.20
2023-03-27T09:51:54.551Z,29.10
2023-03-27T09:55:01.481Z,28.80
2023-03-27T09:57:40.802Z,28.50
2023-03-27T10:00:29.612Z,28.30
2023-03-27T10:03:00.577Z,28.10
2023-03-27T10:05:28.720Z,27.80
2023-03-27T10:08:02.212Z,27.60
2023-03-27T10:10:58.224Z,27.50
2023-03-27T10:13:48.408Z,27.20
2023-03-27T10:16:21.492Z,26.70
2023-03-27T10:19:09.765Z,26.20
2023-03-27T10:21:43.866Z,25.80
2023-03-27T10:24:22.051Z,25.60
2023-03-27T10:27:05.353Z,25.40
2023-03-27T10:29:40.519Z,25.30
2023-03-27T10:32:13.550Z,25.00
2023-03-27T10:35:21.854Z,24.70
2023-03-27T10:38:13.338Z,24.60
2023-03-27T10:41:00.808Z,25.00
2023-03-27T10:43:40.675Z,25.50
2023-03-27T10:46:12.758Z,25.80
2023-03-27T10:48:44.126Z,26.10
2023-03-27T10:51:33.110Z,26.20
2023-03-27T10:54:30.076Z,26.20
2023-03-27T10:57:06.496Z,26.00
2023-03-27T10:59:41.523Z,26.00
2023-03-27T11:02:49.247Z,25.80
2023-03-27T11:05:28.141Z,25.80
2023-03-27T11:08:16.432Z,25.70
2023-03-27T11:10:46.024Z,25.60
2023-03-27T11:13:24.127Z,25.60
2023-03-27T11:15:54.629Z,25.70
2023-03-27T11:18:54.370Z,25.80
2023-03-27T11:21:28.129Z,25.90
2023-03-27T11:24:04.278Z,25.90
2023-03-27T11:26:46.488Z,25.80
2023-03-27T11:29:26.016Z,25.60
2023-03-27T11:31:57.631Z,25.50
2023-03-27T11:35:02.679Z,25.40
2023-03-27T11:37:50.121Z,25.20
2023-03-27T11:40:38.305Z,24.90
2023-03-27T11:43:10.092Z,24.70
2023-03-27T11:46:04.942Z,24.50
2023-03-27T11:48:35.905Z,24.40
2023-03-27T11:51:07.403Z,24.40
2023-03-27T11:53:38.686Z,24.30
2023-03-27T11:56:12.586Z,24.00
2023-03-27T11:59:11.473Z,24.00
2023-03-27T12:02:15.271Z,23.90
2023-03-27T12:04:49.356Z,23.90
2023-03-27T12:07:48.068Z,24.10
2023-03-27T12:10:30.766Z,24.30
2023-03-27T12:13:40.612Z,24.60
2023-03-27T12:16:45.183Z,24.90
2023-03-27T12:19:28.891Z,25.00
2023-03-27T12:22:23.438Z,24.70
2023-03-27T12:25:15.777Z,24.20
2023-03-27T12:28:00.170Z,23.70
2023-03-27T12:30:42.665Z,23.30
2023-03-27T12:33:22.746Z,22.80
2023-03-27T12:35:52.124Z,22.30
2023-03-27T12:38:22.020Z,21.90
2023-03-27T12:41:03.291Z,21.60
2023-03-27T12:43:48.736Z,21.30
2023-03-27T12:46:26.830Z,21.00
2023-03-27T12:48:54.814Z,20.60
2023-03-27T12:51:38.813Z,20.40
2023-03-27T12:54:25.094Z,20.20
2023-03-27T12:57:07.277Z,20.20
2023-03-27T12:59:40.566Z,20.10
2023-03-27T13:02:12.260Z,20.10
2023-03-27T13:05:01.092Z,20.10
2023-03-27T13:07:35.387Z,19.90
2023-03-27T13:10:29.193Z,19.70
2023-03-27T13:12:58.018Z,19.90
2023-03-27T13:15:32.044Z,19.90
2023-03-27T13:18:11.965Z,19.50
2023-03-27T13:20:45.979Z,19.30
2023-03-27T13:23:31.433Z,19.20
2023-03-27T13:26:05.576Z,19.30
2023-03-27T13:28:43.255Z,19.30
2023-03-27T13:31:33.780Z,19.00
2023-03-27T13:34:35.027Z,18.80
2023-03-27T13:37:10.139Z,18.80
2023-03-27T13:39:46.252Z,18.90
2023-03-27T13:42:16.334Z,19.00
2023-03-27T13:44:49.597Z,18.90
2023-03-27T13:47:34.422Z,18.90
2023-03-27T13:50:14.602Z,18.90
2023-03-27T13:52:55.725Z,18.80
2023-03-27T13:56:02.160Z,18.70
2023-03-27T13:59:11.354Z,18.90
2023-03-27T14:01:58.242Z,19.20
2023-03-27T14:04:46.941Z,19.40
2023-03-27T14:07:17.758Z,19.50
2023-03-27T14:10:04.184Z,19.50
2023-03-27T14:13:01.206Z,19.80
2023-03-27T14:16:02.288Z,20.30
2023-03-27T14:18:53.638Z,20.40
2023-03-27T14:21:37.907Z,19.90
2023-03-27T14:24:18.898Z,19.70
2023-03-27T14:26:53.546Z,19.70
2023-03-27T14:29:24.733Z,19.70
2023-03-27T14:31:52.890Z,19.60
2023-03-27T14:34:26.038Z,19.10
2023-03-27T14:37:23.175Z,18.90
2023-03-27T14:39:55.465Z,18.80
2023-03-27T14:42:29.203Z,18.80
2023-03-27T14:45:20.831Z,18.70
2023-03-27T14:47:53.682Z,18.60
2023-03-27T14:50:23.638Z,18.60
2023-03-27T14:52:54.517Z,18.50
2023-03-27T14:55:35.224Z,18.40
2023-03-27T14:58:44.506Z,18.30
2023-03-27T15:01:17.509Z,18.30
2023-03-27T15:03:55.219Z,18.20
2023-03-27T15:06:26.781Z,18.20
2023-03-27T15:09:06.009Z,18.10
2023-03-27T15:11:59.438Z,18.10
2023-03-27T15:14:32.668Z,18.10
2023-03-27T15:17:08.289Z,18.00
2023-03-27T15:19:44.842Z,18.00
2023-03-27T15:22:30.224Z,17.90
2023-03-27T15:25:04.143Z,17.80
2023-03-27T15:27:33.612Z,17.70
2023-03-27T15:30:22.089Z,17.70
2023-03-27T15:32:52.732Z,17.60
2023-03-27T15:35:31.646Z,17.60
2023-03-27T15:38:00.563Z,17.50
2023-03-27T15:40:34.614Z,17.30
2023-03-27T15:43:18.534Z,17.30
2023-03-27T15:45:49.726Z,17.10
2023-03-27T15:48:22.302Z,17.10
2023-03-27T15:50:57.713Z,17.10
2023-03-27T15:53:36.811Z,17.10
2023-03-27T15:56:07.135Z,16.90
2023-03-27T15:58:42.881Z,16.80
2023-03-27T16:01:19.196Z,16.70
2023-03-27T16:03:51.632Z,16.60
2023-03-27T16:06:25.468Z,16.50
2023-03-27T16:08:53.813Z,16.40
2023-03-27T16:11:34.159Z,16.30
2023-03-27T16:14:05.011Z,16.20
2023-03-27T16:16:37.997Z,16.10
2023-03-27T16:19:11.877Z,16.10
2023-03-27T16:21:54.130Z,15.90
2023-03-27T16:24:22.240Z,15.80
2023-03-27T16:26:51.003Z,15.70
2023-03-27T16:29:20.271Z,15.60
2023-03-27T16:31:48.301Z,15.50
2023-03-27T16:34:22.937Z,15.50
2023-03-27T16:36:52.148Z,15.40
2023-03-27T16:39:22.444Z,15.30
2023-03-27T16:41:50.566Z,15.30
2023-03-27T16:44:19.458Z,15.20
2023-03-27T16:46:48.089Z,15.20
2023-03-27T16:49:21.714Z,15.20
2023-03-27T16:51:52.233Z,15.10
2023-03-27T16:54:22.716Z,15.10
2023-03-27T16:56:52.985Z,15.10
2023-03-27T16:59:23.593Z,15.10
2023-03-27T17:01:51.588Z,15.00
2023-03-27T17:04:20.271Z,14.90
2023-03-27T17:06:48.482Z,14.90
2023-03-27T17:09:16.658Z,14.80
2023-03-27T17:11:44.822Z,14.80
2023-03-27T17:14:13.323Z,14.70
2023-03-27T17:16:41.518Z,14.70
2023-03-27T17:19:09.544Z,14.60
2023-03-27T17:21:37.762Z,14.60
2023-03-27T17:24:05.887Z,14.60
2023-03-27T17:26:35.726Z,14.50
2023-03-27T17:29:05.800Z,14.40
2023-03-27T17:31:34.489Z,14.40
2023-03-27T17:34:02.622Z,14.40
2023-03-27T17:36:40.068Z,14.30
2023-03-27T17:39:11.232Z,14.10
2023-03-27T17:41:39.379Z,14.10
2023-03-27T17:44:08.027Z,14.10
2023-03-27T17:46:37.196Z,14.10
2023-03-27T17:49:05.547Z,14.10
2023-03-27T17:51:34.706Z,14.00
2023-03-27T17:54:02.725Z,14.00
2023-03-27T17:56:31.146Z,13.90
2023-03-27T17:59:01.190Z,13.90
2023-03-27T18:01:29.356Z,13.80
2023-03-27T18:03:59.754Z,13.80
2023-03-27T18:06:27.794Z,13.80
2023-03-27T18:08:55.977Z,13.80
2023-03-27T18:11:24.486Z,13.70
2023-03-27T18:13:53.680Z,13.70
2023-03-27T18:16:23.465Z,13.70
2023-03-27T18:18:54.652Z,13.70
2023-03-27T18:21:22.820Z,13.80
2023-03-27T18:23:53.400Z,13.80
2023-03-27T18:26:24.394Z,13.80
2023-03-27T18:28:54.804Z,13.70
2023-03-27T18:31:23.065Z,13.80
2023-03-27T18:33:51.419Z,13.80
2023-03-27T18:36:19.507Z,13.70
2023-03-27T18:38:49.731Z,13.70
2023-03-27T18:41:20.870Z,13.70
2023-03-27T18:43:49.103Z,13.70
2023-03-27T18:46:17.372Z,13.70
2023-03-27T18:48:46.442Z,13.70
2023-03-27T18:51:14.850Z,13.70
2023-03-27T18:53:42.859Z,13.70
2023-03-27T18:56:14.328Z,13.70
2023-03-27T18:58:42.671Z,13.70
2023-03-27T19:01:11.288Z,13.70
2023-03-27T19:03:41.087Z,13.60
2023-03-27T19:06:10.100Z,13.60
2023-03-27T19:08:38.688Z,13.60
2023-03-27T19:11:07.283Z,13.60
2023-03-27T19:14:13.548Z,13.50
2023-03-27T19:16:59.944Z,13.50
2023-03-27T19:19:40.398Z,13.50
2023-03-27T19:22:14.623Z,13.50
2023-03-27T19:24:47.110Z,13.40
2023-03-27T19:27:23.275Z,13.40
2023-03-27T19:29:53.421Z,13.30
2023-03-27T19:32:21.730Z,13.30
2023-03-27T19:34:49.937Z,13.20
2023-03-27T19:37:18.059Z,13.20
2023-03-27T19:39:47.151Z,13.20
2023-03-27T19:42:15.184Z,13.10
2023-03-27T19:44:43.998Z,13.10
2023-03-27T19:47:14.310Z,13.00
2023-03-27T19:49:43.272Z,13.00
2023-03-27T19:52:32.346Z,13.00
2023-03-27T19:55:00.448Z,12.90
2023-03-27T19:57:28.969Z,12.80
2023-03-27T19:59:57.371Z,12.80
2023-03-27T20:02:25.400Z,12.70
2023-03-27T20:04:56.402Z,12.70
2023-03-27T20:07:24.482Z,12.70
2023-03-27T20:09:52.436Z,12.60
2023-03-27T20:12:23.433Z,12.70
2023-03-27T20:15:06.958Z,12.70
2023-03-27T20:17:42.362Z,12.80
2023-03-27T20:20:11.666Z,12.80
2023-03-27T20:22:54.299Z,12.80
2023-03-27T20:25:24.998Z,12.70
2023-03-27T20:27:53.177Z,12.70
2023-03-27T20:30:21.379Z,12.70
2023-03-27T20:32:51.293Z,12.70
2023-03-27T20:35:32.431Z,12.70
2023-03-27T20:38:05.067Z,12.70
2023-03-27T20:43:19.970Z,12.60
2023-03-27T20:45:50.905Z,12.50
2023-03-27T20:48:22.367Z,12.50
2023-03-27T20:50:52.346Z,12.40
2023-03-27T20:53:26.605Z,12.40
2023-03-27T20:56:02.352Z,12.40
2023-03-27T20:58:33.397Z,12.40
2023-03-27T21:01:05.654Z,12.40
2023-03-27T21:03:35.370Z,12.30
2023-03-27T21:06:14.446Z,12.30
2023-03-27T21:08:42.579Z,12.30
2023-03-27T21:11:10.931Z,12.20
2023-03-27T21:13:42.445Z,12.20
2023-03-27T21:16:10.581Z,12.20
2023-03-27T21:18:38.644Z,12.10
2023-03-27T21:21:09.932Z,12.10
2023-03-27T21:23:39.732Z,12.10
2023-03-27T21:26:08.202Z,12.00
2023-03-27T21:28:36.391Z,12.00
2023-03-27T21:31:11.143Z,12.00
2023-03-27T21:33:39.370Z,11.90
2023-03-27T21:36:07.814Z,11.90
2023-03-27T21:38:36.141Z,11.90
2023-03-27T21:41:04.409Z,11.80
2023-03-27T21:43:32.609Z,11.80
2023-03-27T21:46:03.979Z,11.90
2023-03-27T21:48:32.250Z,11.90
2023-03-27T21:51:01.466Z,11.90
2023-03-27T21:53:29.771Z,11.90
2023-03-27T21:55:58.267Z,11.90
2023-03-27T21:58:29.082Z,11.90
2023-03-27T22:00:57.910Z,11.90
2023-03-27T22:03:26.930Z,11.90
2023-03-27T22:06:10.027Z,11.90
2023-03-27T22:08:42.512Z,11.90
2023-03-27T22:11:11.797Z,11.90
2023-03-27T22:13:40.295Z,11.90
2023-03-27T22:16:09.543Z,11.90
2023-03-27T22:18:37.984Z,11.90
2023-03-27T22:21:13.174Z,11.90
2023-03-27T22:23:43.635Z,11.90
2023-03-27T22:26:12.498Z,11.90
2023-03-27T22:28:42.827Z,11.80
2023-03-27T22:31:13.606Z,11.80
2023-03-27T22:33:41.882Z,11.80
2023-03-27T22:36:11.151Z,11.80
2023-03-27T22:38:39.531Z,11.80
2023-03-27T22:41:08.970Z,11.70
2023-03-27T22:43:40.653Z,11.70
2023-03-27T22:46:11.488Z,11.70
2023-03-27T22:48:40.392Z,11.70
2023-03-27T22:51:09.022Z,11.60
2023-03-27T22:53:37.471Z,11.60
2023-03-27T22:56:06.444Z,11.60
2023-03-27T22:58:34.541Z,11.60
2023-03-27T23:01:03.618Z,11.60
2023-03-27T23:03:32.297Z,11.60
2023-03-27T23:06:00.778Z,11.60
2023-03-27T23:08:29.527Z,11.60
2023-03-27T23:10:58.983Z,11.60
2023-03-27T23:13:27.967Z,11.60
2023-03-27T23:15:56.184Z,11.50
2023-03-27T23:18:25.681Z,11.50
2023-03-27T23:20:55.368Z,11.50
2023-03-27T23:23:23.594Z,11.50
2023-03-27T23:25:52.486Z,11.50
2023-03-27T23:28:23.058Z,11.40
2023-03-27T23:30:59.439Z,11.40
2023-03-27T23:33:30.284Z,11.40
2023-03-27T23:36:02.766Z,11.30
2023-03-27T23:38:33.394Z,11.30
2023-03-27T23:41:02.570Z,11.20
2023-03-27T23:43:31.315Z,11.20
2023-03-27T23:46:00.274Z,11.10
2023-03-27T23:48:28.984Z,11.10
2023-03-27T23:50:59.469Z,11.10
2023-03-27T23:53:30.353Z,11.10
2023-03-27T23:56:03.498Z,11.10
2023-03-27T23:58:34.477Z,11.10
